Forest Home, Alabama
Current Conditions -  °F | °C
As of 6:56 AM on Wednesday 22 Oct 2014 (Local Time) from KPRN Reporting Station
Clear Clear  
Wind Chill: 51°   Ceiling: Unl
Heat Index: 51°   Visibility: 9mi
Dew Point: 48°   Wind: 5mph
Humidity: 89%   Direction: 360°N
Pressure: 30.09"   Gusts: NA
Location:  31.86°N, 86.84°W
Report Text: KPRN 221156Z AUTO 36004KT 9SM CLR 11/09 A3009 RMK AO2 SLP187 60001 70001 T01060089 10122 20089 53021
Loading
Personal Weather Stations






























Interactive Weather Map
Tropical Storm Tracking
New forecast layout! Learn more

10-Day Weather Forecast

Advertisements
Track Severe Weather on mobile